createdAt,value
2019-04-01T00:02:49.297Z,98062.80
2019-04-01T00:07:52.575Z,98054.45
2019-04-01T00:12:55.883Z,98056.67
2019-04-01T00:17:59.181Z,98057.87
2019-04-01T00:23:02.726Z,98058.17
2019-04-01T00:28:06.126Z,98053.81
2019-04-01T00:33:09.419Z,98055.56
2019-04-01T00:38:12.725Z,98053.17
2019-04-01T00:43:17.647Z,98053.33
2019-04-01T00:48:21.035Z,98049.85
2019-04-01T00:53:24.367Z,98053.34
2019-04-01T00:58:30.564Z,98055.07
2019-04-01T01:03:33.578Z,98046.34
2019-04-01T01:08:36.892Z,98039.27
2019-04-01T01:13:40.372Z,98038.67
2019-04-01T01:18:43.669Z,98035.39
2019-04-01T01:23:46.973Z,98028.28
2019-04-01T01:28:50.361Z,98029.70
2019-04-01T01:33:53.718Z,98030.16
2019-04-01T01:38:57.015Z,98029.02
2019-04-01T01:44:00.689Z,98018.81
2019-04-01T01:49:03.986Z,98017.72
2019-04-01T01:54:07.354Z,98015.81
2019-04-01T01:59:10.650Z,98011.50
2019-04-01T02:04:14.056Z,98011.50
2019-04-01T02:09:17.345Z,98006.11
2019-04-01T02:14:20.640Z,98009.41
2019-04-01T02:19:23.952Z,98011.03
2019-04-01T02:24:27.241Z,98008.77
2019-04-01T02:29:30.538Z,98005.34
2019-04-01T02:34:33.877Z,98011.31
2019-04-01T02:39:37.178Z,98010.89
2019-04-01T02:44:40.551Z,98006.01
2019-04-01T02:49:43.845Z,98017.52
2019-04-01T02:54:47.152Z,98015.89
2019-04-01T02:59:50.450Z,98016.91
2019-04-01T03:04:53.826Z,98017.56
2019-04-01T03:09:57.210Z,98018.97
2019-04-01T03:15:00.564Z,98018.80
2019-04-01T03:20:05.105Z,98018.35
2019-04-01T03:25:08.539Z,98011.87
2019-04-01T03:30:11.870Z,98012.58
2019-04-01T03:35:15.147Z,98016.95
2019-04-01T03:40:18.443Z,98020.94
2019-04-01T03:45:21.737Z,98020.20
2019-04-01T03:50:25.033Z,98023.85
2019-04-01T03:55:28.322Z,98022.81
2019-04-01T04:00:31.618Z,98030.52
2019-04-01T04:05:34.926Z,98027.36
2019-04-01T04:10:38.287Z,98030.45
2019-04-01T04:15:41.651Z,98029.80
2019-04-01T04:20:45.002Z,98035.40
2019-04-01T04:25:49.428Z,98037.14
2019-04-01T04:30:52.869Z,98038.14
2019-04-01T04:35:56.176Z,98049.72
2019-04-01T04:40:59.456Z,98054.00
2019-04-01T04:46:02.754Z,98047.41
2019-04-01T04:51:06.048Z,98046.84
2019-04-01T04:56:09.322Z,98051.32
2019-04-01T05:01:13.129Z,98055.06
2019-04-01T05:06:16.394Z,98059.86
2019-04-01T05:11:19.691Z,98063.52
2019-04-01T05:16:23.069Z,98058.23
2019-04-01T05:21:26.741Z,98057.66
2019-04-01T05:26:30.410Z,98048.28
2019-04-01T05:31:34.749Z,98051.11
2019-04-01T05:36:38.117Z,98046.31
2019-04-01T05:41:41.464Z,98042.16
2019-04-01T05:46:44.763Z,98043.14
2019-04-01T05:51:48.130Z,98053.19
2019-04-01T05:56:51.611Z,98056.80
2019-04-01T06:01:54.911Z,98063.26
2019-04-01T06:06:58.250Z,98050.84
2019-04-01T06:12:01.562Z,98056.49
2019-04-01T06:17:04.855Z,98055.69
2019-04-01T06:22:08.223Z,98057.09
2019-04-01T06:27:12.043Z,98058.06
2019-04-01T06:32:15.888Z,98057.84
2019-04-01T06:37:19.178Z,98060.60
2019-04-01T06:42:22.485Z,98058.39
2019-04-01T06:47:25.779Z,98063.92
2019-04-01T06:52:29.083Z,98061.70
2019-04-01T06:57:32.376Z,98060.44
2019-04-01T07:02:35.672Z,98060.89
2019-04-01T07:07:38.971Z,98056.02
2019-04-01T07:12:42.548Z,98059.77
2019-04-01T07:17:45.847Z,98053.39
2019-04-01T07:22:49.271Z,98059.59
2019-04-01T07:27:52.579Z,98049.26
2019-04-01T07:32:55.879Z,98048.77
2019-04-01T07:37:59.175Z,98052.86
2019-04-01T07:43:02.848Z,98052.05
2019-04-01T07:48:06.168Z,98049.07
2019-04-01T07:53:09.641Z,98055.80
2019-04-01T07:58:12.944Z,98058.54
2019-04-01T08:03:16.306Z,98051.13
2019-04-01T08:08:19.681Z,98057.39
2019-04-01T08:13:22.983Z,98050.34
2019-04-01T08:18:26.297Z,98046.03
2019-04-01T08:23:29.676Z,98041.36
2019-04-01T08:28:33.048Z,98040.03
2019-04-01T08:33:36.344Z,98041.92
2019-04-01T08:38:39.769Z,98050.81
2019-04-01T08:43:44.019Z,98047.83
2019-04-01T08:48:47.407Z,98037.88
2019-04-01T08:53:50.899Z,98036.76
2019-04-01T08:58:54.463Z,98036.09
2019-04-01T09:03:57.769Z,98034.98
2019-04-01T09:09:01.643Z,98036.97
2019-04-01T09:14:05.018Z,98022.50
2019-04-01T09:19:08.331Z,98023.81
2019-04-01T09:24:11.624Z,98023.64
2019-04-01T09:29:15.005Z,98020.83
2019-04-01T09:34:18.306Z,98027.27
2019-04-01T09:39:21.605Z,98017.44
2019-04-01T09:44:36.086Z,98018.61
2019-04-01T09:49:29.940Z,98013.45
2019-04-01T09:54:33.245Z,98005.93
2019-04-01T09:59:36.669Z,98005.97
2019-04-01T10:04:39.930Z,97999.08
2019-04-01T10:09:43.295Z,97988.99
2019-04-01T10:14:46.633Z,97992.83
2019-04-01T10:19:49.892Z,97991.19
2019-04-01T10:24:53.206Z,97979.05
2019-04-01T10:29:56.511Z,97971.11
2019-04-01T10:34:59.825Z,97966.91
2019-04-01T10:40:03.699Z,97961.20
2019-04-01T10:45:08.620Z,97946.08
2019-04-01T10:50:13.253Z,97955.24
2019-04-01T10:55:16.551Z,97948.46
2019-04-01T11:00:20.046Z,97949.45
2019-04-01T11:05:23.357Z,97945.00
2019-04-01T11:10:26.697Z,97933.09
2019-04-01T11:15:30.009Z,97927.84
2019-04-01T11:20:33.409Z,97922.03
2019-04-01T11:25:36.717Z,97916.33
2019-04-01T11:30:40.027Z,97902.39
2019-04-01T11:35:43.326Z,97903.92
2019-04-01T11:40:46.679Z,97902.02
2019-04-01T11:45:50.070Z,97896.16
2019-04-01T11:50:53.988Z,97890.64
2019-04-01T11:55:57.557Z,97873.44
2019-04-01T12:01:00.863Z,97865.41
2019-04-01T12:06:04.236Z,97857.14
2019-04-01T12:11:07.540Z,97849.64
2019-04-01T12:16:10.911Z,97850.19
2019-04-01T12:21:14.220Z,97837.27
2019-04-01T12:26:17.717Z,97839.77
2019-04-01T12:31:21.730Z,97830.08
2019-04-01T12:36:25.392Z,97827.42
2019-04-01T12:41:28.787Z,97818.25
2019-04-01T12:46:32.088Z,97814.67
2019-04-01T12:51:35.465Z,97813.27
2019-04-01T12:56:38.781Z,97800.09
2019-04-01T13:01:42.087Z,97792.52
2019-04-01T13:06:45.393Z,97779.14
2019-04-01T13:11:49.087Z,97779.62
2019-04-01T13:16:52.735Z,97775.94
2019-04-01T13:21:56.249Z,97769.95
2019-04-01T13:27:00.351Z,97748.37
2019-04-01T13:32:03.918Z,97750.59
2019-04-01T13:37:07.285Z,97747.83
2019-04-01T13:42:10.598Z,97741.49
2019-04-01T13:47:13.880Z,97742.12
2019-04-01T13:52:17.193Z,97726.88
2019-04-01T13:57:20.692Z,97718.50
2019-04-01T14:02:23.996Z,97719.62
2019-04-01T14:07:27.300Z,97717.46
2019-04-01T14:12:30.704Z,97711.13
2019-04-01T14:17:34.001Z,97704.96
2019-04-01T14:22:37.340Z,97708.56
2019-04-01T14:27:40.640Z,97700.27
2019-04-01T14:32:43.950Z,97696.37
2019-04-01T14:37:47.388Z,97695.07
2019-04-01T14:42:51.629Z,97683.71
2019-04-01T14:47:57.553Z,97689.48
2019-04-01T14:52:59.967Z,97684.96
2019-04-01T14:58:03.281Z,97677.63
2019-04-01T15:03:06.585Z,97680.39
2019-04-01T15:08:09.979Z,97680.82
2019-04-01T15:13:13.292Z,97674.69
2019-04-01T15:18:16.779Z,97665.12
2019-04-01T15:23:20.108Z,97662.66
2019-04-01T15:28:25.487Z,97657.04
2019-04-01T15:33:28.807Z,97650.09
2019-04-01T15:38:32.130Z,97646.34
2019-04-01T15:43:35.460Z,97643.89
2019-04-01T15:48:38.794Z,97644.89
2019-04-01T15:53:42.094Z,97635.11
2019-04-01T15:58:45.418Z,97633.27
2019-04-01T16:03:48.731Z,97631.30
2019-04-01T16:08:52.063Z,97630.98
2019-04-01T16:13:55.382Z,97640.48
2019-04-01T16:18:59.977Z,97641.42
2019-04-01T16:24:03.465Z,97636.75
2019-04-01T16:29:06.802Z,97634.19
2019-04-01T16:34:10.111Z,97635.09
2019-04-01T16:39:13.422Z,97628.74
2019-04-01T16:44:16.805Z,97623.64
2019-04-01T16:49:20.152Z,97623.75
2019-04-01T16:54:23.444Z,97619.01
2019-04-01T16:59:28.049Z,97623.27
2019-04-01T17:04:32.765Z,97624.45
2019-04-01T17:09:36.288Z,97626.59
2019-04-01T17:14:39.614Z,97626.59
2019-04-01T17:19:42.939Z,97624.63
2019-04-01T17:24:46.332Z,97621.63
2019-04-01T17:29:49.650Z,97617.88
2019-04-01T17:34:52.974Z,97621.05
2019-04-01T17:39:56.324Z,97621.69
2019-04-01T17:45:02.815Z,97623.58
2019-04-01T17:50:07.281Z,97614.34
2019-04-01T17:55:10.615Z,97611.12
2019-04-01T18:00:17.443Z,97618.69
2019-04-01T18:05:22.366Z,97626.61
2019-04-01T18:10:25.701Z,97622.75
2019-04-01T18:15:29.032Z,97633.82
2019-04-01T18:20:33.473Z,97632.34
2019-04-01T18:25:37.496Z,97632.41
2019-04-01T18:30:40.816Z,97640.05
2019-04-01T18:35:44.947Z,97644.49
2019-04-01T18:40:48.444Z,97649.44
2019-04-01T18:45:51.805Z,97652.20
2019-04-01T18:50:55.195Z,97654.88
2019-04-01T18:56:00.478Z,97658.28
2019-04-01T19:01:04.540Z,97661.36
2019-04-01T19:06:07.875Z,97667.94
2019-04-01T19:11:11.329Z,97667.00
2019-04-01T19:16:16.638Z,97670.49
2019-04-01T19:21:19.754Z,97672.09
2019-04-01T19:26:24.208Z,97667.48
2019-04-01T19:31:27.736Z,97674.05
2019-04-01T19:36:31.051Z,97668.16
2019-04-01T19:41:34.376Z,97682.48
2019-04-01T19:46:38.129Z,97677.28
2019-04-01T19:51:41.704Z,97685.14
2019-04-01T19:56:45.099Z,97682.83
2019-04-01T20:01:49.366Z,97686.22
2019-04-01T20:06:52.677Z,97680.94
2019-04-01T20:11:58.365Z,97682.56
2019-04-01T20:17:02.276Z,97680.44
2019-04-01T20:22:05.909Z,97678.66
2019-04-01T20:27:10.260Z,97677.69
2019-04-01T20:32:17.495Z,97678.52
2019-04-01T20:37:20.580Z,97673.59
2019-04-01T20:42:24.038Z,97667.00
2019-04-01T20:47:27.798Z,97664.86
2019-04-01T20:52:33.150Z,97667.53
2019-04-01T20:57:39.535Z,97662.31
2019-04-01T21:02:45.951Z,97659.66
2019-04-01T21:07:50.690Z,97665.90
2019-04-01T21:12:55.891Z,97660.39
2019-04-01T21:17:59.187Z,97651.17
2019-04-01T21:23:02.748Z,97646.34
2019-04-01T21:28:06.132Z,97655.52
2019-04-01T21:33:09.586Z,97655.09
2019-04-01T21:38:12.887Z,97650.67
2019-04-01T21:43:17.760Z,97652.09
2019-04-01T21:48:21.123Z,97642.52
2019-04-01T21:53:24.438Z,97648.70
2019-04-01T21:58:27.736Z,97642.00
2019-04-01T22:03:31.030Z,97637.08
2019-04-01T22:08:35.215Z,97633.19
2019-04-01T22:13:39.375Z,97629.41
2019-04-01T22:18:43.018Z,97629.41
2019-04-01T22:23:46.640Z,97623.14
2019-04-01T22:28:50.195Z,97616.33
2019-04-01T22:33:54.433Z,97619.12
2019-04-01T22:38:57.724Z,97612.34
2019-04-01T22:44:01.010Z,97612.82
2019-04-01T22:49:04.577Z,97614.63
2019-04-01T22:54:07.874Z,97612.09
2019-04-01T22:59:11.179Z,97613.22
2019-04-01T23:04:14.449Z,97609.30
2019-04-01T23:09:17.753Z,97611.16
2019-04-01T23:14:21.028Z,97598.64
2019-04-01T23:19:24.333Z,97594.75
2019-04-01T23:24:28.262Z,97590.37
2019-04-01T23:29:31.923Z,97586.22
2019-04-01T23:34:35.220Z,97584.45
2019-04-01T23:39:38.531Z,97574.68
2019-04-01T23:44:41.827Z,97568.66
2019-04-01T23:49:45.123Z,97585.31
2019-04-01T23:54:48.417Z,97575.42
2019-04-01T23:59:51.713Z,97569.11
